• Join FlightAware (Why Join?)
  • Login
  • US Flag 
01:49AM EDT


 

Airport Tracker/Info


-or-


 

Live Flight TrackerFlight Track Log ✈ EJA930 ✈ 01-Jul-2013 ✈ KEGE - KAPA

Flight Track Log - Related Links

Times and Time Zones

All times are in EDT time to prevent confusion due to time zone crossing. See the EJA930 flight status page for this flight to view local times or setup timezone preferences in your user account.

Time Position Orientation Groundspeed Altitude Reporting Facility
EDT Latitude Longitude Course Direction KTS MPH feet Rate Location/Type
10:46AM 39.5931 -107.0083 37° Northeast 236 272 11,700  Level Denver Center
10:47AM 39.6561 -107.0433 337° Northwest 264 304 16,800 4,320 Climbing Denver Center
10:48AM 39.7325 -107.0678 346° North 271 312 20,700 1,980 Climbing Denver Center
10:49AM 39.7967 -107.0042 37° Northeast 329 379 21,000 120 Climbing Denver Center
10:50AM 40.1167 -106.3032 90° East  Level FlightAware Approximate
10:50AM 39.8408 -106.8889 63° Northeast 356 410 21,000  Level Denver Center
10:51AM 40.1949 -106.2218 37° Northeast  Level FlightAware Approximate
10:52AM 40.2752 -106.1417 37° Northeast  Level FlightAware Approximate
10:52AM 39.8944 -106.7436 64° Northeast 368 423 21,000  Level Denver Center
10:53AM 39.9189 -106.6100 77° East 385 443 21,000  Level Denver Center
10:54AM 39.8836 -106.4678 108° East 411 473 21,000 -360 Level Denver Center
10:55AM 39.8472 -106.3250 108° East 414 476 20,300 -1,080 Descending Denver Center
10:56AM 39.8078 -106.1719 109° East 437 503 18,800 -1,500 Descending Denver Center
10:57AM 39.7569 -105.9803 109° East 457 526 17,300 -900 Descending Denver Center
10:58AM 39.7144 -105.8219 109° East 462 532 17,000 -480 Descending Denver Center
10:59AM 39.6758 -105.6792 109° East 423 487 16,400 -480 Descending Denver Center
11:00AM 39.6358 -105.5283 109° East 415 478 16,100 -720 Descending Denver Center
11:01AM 39.6017 -105.3808 107° East 402 463 14,900 -1,500 Descending Denver Center
11:02AM 39.5903 -105.2394 96° East 398 458 13,000 -1,440 Descending Denver Center
11:03AM 39.5803 -105.1106 96° East 341 392 12,000 -1,680 Descending Denver Center
11:04AM 39.5511 -105.0125 111° Southeast 298 343 9,600 -1,380 Descending Denver Center
11:06AM 39.4667 -104.8833 130° Southeast 254 292 8,000 -840 Descending Denver TRACON
11:07AM 39.5000 -104.8500 38° Northeast 186 214 7,200 -960 Descending Denver TRACON
11:08AM 39.5500 -104.8500 360° North 134 154 6,100 -1,020 Descending Denver TRACON
11:10AM 39.5701 -104.8493 38° Northeast  Level Estimated